Time;durP1;ratioP1;P1;durP2;ratioP2;P2;SDS_P1;SDS_P2;PMS_P1;PMS_P2;Temp;Humidity;BMP_temperature;BMP_pressure;BME280_temperature;BME280_humidity;BME280_pressure;Samples;Min_cycle;Max_cycle;Signal;HPM_P1;HPM_P2
2024/01/31 00:00:11;;;;;;;5.53;2.25;;;3.40;99.90;;;;;;5016550;28;20029;-74
2024/01/31 00:03:04;;;;;;;5.40;2.70;;;3.30;99.90;;;;;;5083179;28;20036;-76
2024/01/31 00:05:48;;;;;;;7.82;3.15;;;3.20;99.90;;;;;;5083301;28;20072;-75
2024/01/31 00:08:34;;;;;;;3.13;2.65;;;3.40;99.90;;;;;;5083932;28;20044;-74
2024/01/31 00:11:32;;;;;;;3.00;2.17;;;3.40;99.90;;;;;;5084567;28;20027;-79
2024/01/31 00:13:58;;;;;;;5.65;2.95;;;3.40;99.90;;;;;;5066034;28;20024;-86
2024/01/31 00:16:24;;;;;;;3.05;2.75;;;3.30;99.90;;;;;;5067325;28;20023;-85
2024/01/31 00:18:50;;;;;;;4.55;2.75;;;3.30;99.90;;;;;;5084754;28;20024;-84
2024/01/31 00:21:17;;;;;;;5.88;2.38;;;3.20;99.90;;;;;;5068324;28;20075;-85
2024/01/31 00:23:55;;;;;;;3.55;2.45;;;3.10;99.90;;;;;;5085108;28;20029;-86
2024/01/31 00:26:21;;;;;;;4.07;2.47;;;3.10;99.90;;;;;;5084885;28;20020;-86
2024/01/31 00:29:26;;;;;;;6.07;2.80;;;3.10;99.90;;;;;;5084751;28;20050;-86
2024/01/31 00:32:07;;;;;;;2.92;2.35;;;3.20;99.90;;;;;;5081588;28;20032;-86
2024/01/31 00:34:36;;;;;;;6.72;2.47;;;3.00;99.90;;;;;;5080258;28;20055;-83
2024/01/31 00:37:19;;;;;;;4.65;2.80;;;2.80;99.90;;;;;;5106104;28;20016;-86
2024/01/31 00:40:09;;;;;;;5.95;2.83;;;2.70;99.90;;;;;;5099572;28;20220;-84
2024/01/31 00:43:01;;;;;;;3.97;3.58;;;2.70;99.90;;;;;;5085322;28;20032;-76
2024/01/31 00:46:46;;;;;;;;;;;;;;;;;;;;;
2024/01/31 00:48:55;;;;;;;10.55;3.15;;;2.40;99.90;;;;;;5076437;28;20232;-84
2024/01/31 00:52:26;;;;;;;6.32;3.20;;;2.20;99.90;;;;;;5083317;28;20043;-84
2024/01/31 00:58:40;;;;;;;4.50;2.80;;;2.00;99.90;;;;;;5077638;28;20339;-82
2024/01/31 01:05:17;;;;;;;4.63;2.92;;;2.00;99.90;;;;;;5025288;28;20355;-83
2024/01/31 01:07:55;;;;;;;5.13;2.55;;;2.10;99.90;;;;;;5081938;28;20024;-81
2024/01/31 01:10:21;;;;;;;7.32;2.72;;;2.10;99.90;;;;;;5083096;28;20024;-83
2024/01/31 01:12:49;;;;;;;5.30;2.72;;;2.00;99.90;;;;;;5084262;28;20327;-81
2024/01/31 01:15:26;;;;;;;4.00;2.73;;;2.00;99.90;;;;;;5084317;28;20370;-83
2024/01/31 01:17:51;;;;;;;5.95;2.53;;;2.00;99.90;;;;;;5083909;28;20021;-83
2024/01/31 01:20:17;;;;;;;3.47;2.22;;;2.00;99.90;;;;;;5084171;28;20396;-82
2024/01/31 01:22:43;;;;;;;2.60;2.30;;;2.20;99.90;;;;;;5083924;28;20243;-85
2024/01/31 01:25:10;;;;;;;3.50;2.40;;;1.70;99.90;;;;;;5082581;28;20024;-84
2024/01/31 01:27:36;;;;;;;4.25;2.53;;;1.70;99.90;;;;;;5083004;28;20024;-82
2024/01/31 01:30:20;;;;;;;4.13;2.63;;;1.80;99.90;;;;;;5083925;28;20024;-85
2024/01/31 01:32:49;;;;;;;3.78;2.50;;;1.70;99.90;;;;;;5082428;28;20264;-80
2024/01/31 01:35:24;;;;;;;3.00;2.47;;;1.90;99.90;;;;;;5068351;28;20037;-85
2024/01/31 01:37:59;;;;;;;4.47;2.13;;;1.90;99.90;;;;;;5045138;28;20481;-86
2024/01/31 01:40:24;;;;;;;2.10;1.95;;;2.00;99.90;;;;;;5072211;28;20020;-85
2024/01/31 01:42:50;;;;;;;3.15;2.33;;;2.00;99.90;;;;;;5080422;28;20050;-84
2024/01/31 01:45:16;;;;;;;4.85;2.53;;;1.90;99.90;;;;;;5064646;28;20304;-84
2024/01/31 01:47:48;;;;;;;3.28;2.50;;;1.90;99.90;;;;;;5082149;28;20036;-84
2024/01/31 01:51:00;;;;;;;4.63;2.47;;;1.90;99.90;;;;;;5064907;28;20020;-79
2024/01/31 01:53:37;;;;;;;4.72;2.42;;;1.90;99.90;;;;;;5050092;28;20032;-84
2024/01/31 01:56:04;;;;;;;4.05;2.72;;;1.90;99.90;;;;;;5083119;28;20024;-86
2024/01/31 01:58:36;;;;;;;4.20;2.17;;;1.90;99.90;;;;;;5083058;28;20024;-85
2024/01/31 02:01:02;;;;;;;3.53;2.10;;;1.80;99.90;;;;;;5083462;28;20024;-85
2024/01/31 02:03:29;;;;;;;6.60;2.05;;;1.80;99.90;;;;;;5080195;28;20047;-81
2024/01/31 02:06:00;;;;;;;7.65;2.83;;;1.80;99.90;;;;;;5065521;28;20028;-86
2024/01/31 02:08:44;;;;;;;3.92;2.38;;;1.90;99.90;;;;;;5064942;28;20047;-80
2024/01/31 02:11:10;;;;;;;3.65;2.65;;;1.80;99.90;;;;;;5063405;28;20119;-84
2024/01/31 02:13:35;;;;;;;5.13;2.90;;;1.90;99.90;;;;;;5082859;28;20032;-82
2024/01/31 02:16:01;;;;;;;2.97;1.75;;;2.10;99.90;;;;;;5082887;28;20012;-84
2024/01/31 02:18:28;;;;;;;3.50;2.63;;;1.60;99.90;;;;;;5064828;28;20024;-82
2024/01/31 02:20:54;;;;;;;5.40;2.88;;;1.60;99.90;;;;;;5082164;28;20020;-86
2024/01/31 02:23:27;;;;;;;3.17;2.58;;;1.70;99.90;;;;;;5082794;28;20039;-86
2024/01/31 02:26:37;;;;;;;4.68;2.40;;;1.70;99.90;;;;;;5082937;28;20299;-82
2024/01/31 02:29:05;;;;;;;2.72;2.30;;;1.60;99.90;;;;;;5073770;28;20119;-86
2024/01/31 02:32:31;;;;;;;2.75;2.30;;;1.50;99.90;;;;;;5082529;28;20032;-83
2024/01/31 02:34:56;;;;;;;2.67;2.00;;;1.50;99.90;;;;;;5082292;28;20052;-85
2024/01/31 02:37:22;;;;;;;3.55;2.63;;;1.50;99.90;;;;;;5081906;28;20343;-80
2024/01/31 02:39:48;;;;;;;3.92;2.35;;;1.60;99.90;;;;;;5077930;28;20036;-86
2024/01/31 02:42:14;;;;;;;5.28;2.65;;;1.40;99.90;;;;;;5062118;28;20071;-85
2024/01/31 02:44:40;;;;;;;3.53;2.60;;;1.50;99.90;;;;;;5043678;28;20325;-86
2024/01/31 02:47:06;;;;;;;4.55;2.58;;;1.50;99.90;;;;;;5059639;28;20021;-84
2024/01/31 02:49:31;;;;;;;3.47;2.35;;;1.50;99.90;;;;;;5062719;28;20051;-85
2024/01/31 02:52:00;;;;;;;3.92;2.40;;;1.70;99.90;;;;;;5062554;28;20017;-84
2024/01/31 02:54:25;;;;;;;7.20;2.63;;;1.50;99.90;;;;;;5062627;28;20360;-81
2024/01/31 02:56:51;;;;;;;3.75;2.65;;;1.50;99.90;;;;;;5061960;28;20267;-84
2024/01/31 02:59:19;;;;;;;4.28;2.80;;;1.50;99.90;;;;;;5061164;28;20086;-84
2024/01/31 03:01:49;;;;;;;3.40;2.90;;;1.80;99.90;;;;;;5061260;28;20096;-82
2024/01/31 03:04:15;;;;;;;4.90;2.28;;;2.00;99.90;;;;;;5062176;28;20099;-82
2024/01/31 03:06:41;;;;;;;3.47;2.83;;;1.70;99.90;;;;;;5061764;28;20168;-84
2024/01/31 03:09:07;;;;;;;3.97;2.33;;;1.60;99.90;;;;;;5062063;28;20092;-83
2024/01/31 03:11:53;;;;;;;4.32;3.03;;;1.80;99.90;;;;;;5062123;28;20089;-84
2024/01/31 03:14:57;;;;;;;5.70;2.70;;;1.50;99.90;;;;;;5062127;28;20029;-85
2024/01/31 03:18:39;;;;;;;4.32;2.47;;;1.50;99.90;;;;;;5059547;28;20420;-83
2024/01/31 03:21:10;;;;;;;8.05;3.58;;;1.50;99.90;;;;;;5061974;28;20032;-83
2024/01/31 03:23:37;;;;;;;5.28;2.70;;;1.60;99.90;;;;;;5066122;28;20036;-83
2024/01/31 03:26:03;;;;;;;4.70;2.60;;;1.80;99.90;;;;;;5046939;28;20021;-85
2024/01/31 03:28:38;;;;;;;3.40;2.28;;;1.90;99.90;;;;;;5064590;28;20035;-81
2024/01/31 03:31:40;;;;;;;7.63;2.83;;;1.80;99.90;;;;;;5065814;28;20016;-81
2024/01/31 03:34:39;;;;;;;;;;;;;;;;;;;;;
2024/01/31 03:37:05;;;;;;;4.13;2.47;;;1.70;99.90;;;;;;5057237;28;20056;-83
2024/01/31 03:39:38;;;;;;;3.50;2.33;;;1.60;99.90;;;;;;5065073;28;20325;-87
2024/01/31 03:42:04;;;;;;;2.65;2.45;;;1.90;99.90;;;;;;5065878;28;20029;-83
2024/01/31 03:44:42;;;;;;;2.20;1.98;;;1.70;99.90;;;;;;5064895;28;20036;-83
2024/01/31 03:47:08;;;;;;;4.40;2.75;;;1.80;99.90;;;;;;5065751;28;20021;-85
2024/01/31 03:49:46;;;;;;;3.22;2.33;;;1.80;99.90;;;;;;5065203;28;20144;-86
2024/01/31 03:52:25;;;;;;;3.72;2.45;;;1.70;99.90;;;;;;5065618;28;20012;-85
2024/01/31 03:55:28;;;;;;;3.20;2.28;;;1.60;99.90;;;;;;5064274;28;20021;-77
2024/01/31 04:01:42;;;;;;;9.57;2.92;;;1.60;99.90;;;;;;5056799;28;20056;-85
2024/01/31 04:07:36;;;;;;;3.78;2.80;;;1.70;99.90;;;;;;5056088;28;20055;-84
2024/01/31 04:10:03;;;;;;;3.97;2.58;;;1.70;99.90;;;;;;5065395;28;20298;-84
2024/01/31 04:12:55;;;;;;;6.53;2.80;;;1.60;99.90;;;;;;5064050;28;20216;-85
2024/01/31 04:15:39;;;;;;;2.63;2.40;;;1.60;99.90;;;;;;5065148;28;20063;-86
2024/01/31 04:18:08;;;;;;;2.97;2.70;;;1.60;99.90;;;;;;5064847;28;20025;-86
2024/01/31 04:20:50;;;;;;;5.18;2.58;;;1.60;99.90;;;;;;5064102;28;20025;-82
2024/01/31 04:23:35;;;;;;;3.88;2.83;;;1.60;99.90;;;;;;5065046;28;20040;-83
2024/01/31 04:26:01;;;;;;;4.15;2.33;;;1.50;99.90;;;;;;5065478;28;20059;-85
2024/01/31 04:28:27;;;;;;;3.55;2.10;;;1.50;99.90;;;;;;5064781;28;20028;-84
2024/01/31 04:30:53;;;;;;;5.55;2.17;;;1.50;99.90;;;;;;5064071;28;20021;-85
2024/01/31 04:33:22;;;;;;;3.63;2.70;;;1.40;99.90;;;;;;5063521;28;20080;-82
2024/01/31 04:35:50;;;;;;;4.13;2.63;;;1.80;99.90;;;;;;5063965;28;20041;-85
2024/01/31 04:38:42;;;;;;;3.38;2.53;;;1.50;99.90;;;;;;5065087;28;20020;-85
2024/01/31 04:41:47;;;;;;;;;;;;;;;;;;;;;
2024/01/31 04:45:03;;;;;;;3.97;2.28;;;1.50;99.90;;;;;;5038563;28;20117;-83
2024/01/31 04:48:09;;;;;;;2.15;1.90;;;1.60;99.90;;;;;;5057590;28;20076;-80
2024/01/31 04:51:17;;;;;;;;;;;;;;;;;;;;;
2024/01/31 04:54:13;;;;;;;4.18;2.40;;;1.40;99.90;;;;;;5019099;28;20072;-85
2024/01/31 04:57:10;;;;;;;3.47;2.75;;;1.50;99.90;;;;;;5052502;28;20037;-84
2024/01/31 04:59:46;;;;;;;4.05;2.65;;;1.40;99.90;;;;;;5055038;28;20061;-83
2024/01/31 05:02:12;;;;;;;3.75;2.33;;;1.50;99.90;;;;;;5056276;28;20028;-82
2024/01/31 05:04:45;;;;;;;3.33;2.50;;;1.50;99.90;;;;;;5058728;28;20028;-82
2024/01/31 05:07:11;;;;;;;4.47;2.58;;;1.60;99.90;;;;;;5059459;28;20025;-83
2024/01/31 05:09:37;;;;;;;6.38;2.80;;;1.70;99.90;;;;;;5058408;28;20155;-84
2024/01/31 05:12:03;;;;;;;4.93;2.88;;;1.80;99.90;;;;;;5053458;28;20094;-85
2024/01/31 05:14:48;;;;;;;5.50;2.40;;;1.90;99.90;;;;;;5051851;28;20037;-76
2024/01/31 05:17:20;;;;;;;5.72;2.78;;;1.80;99.90;;;;;;5050999;28;20477;-84
2024/01/31 05:19:46;;;;;;;5.25;3.20;;;1.70;99.90;;;;;;5050908;28;20029;-82
2024/01/31 05:22:12;;;;;;;4.57;3.13;;;1.60;99.90;;;;;;5052483;28;20035;-78
2024/01/31 05:24:39;;;;;;;4.85;2.70;;;2.00;99.90;;;;;;5053052;28;20031;-83
2024/01/31 05:27:05;;;;;;;4.05;2.92;;;1.60;99.90;;;;;;5051263;28;20075;-83
2024/01/31 05:29:31;;;;;;;4.25;2.80;;;1.50;99.90;;;;;;5051115;28;20056;-84
2024/01/31 05:31:57;;;;;;;4.50;2.95;;;1.50;99.90;;;;;;5050626;28;20029;-79
2024/01/31 05:34:22;;;;;;;7.03;4.00;;;1.40;99.90;;;;;;5047948;28;20592;-82
2024/01/31 05:36:49;;;;;;;7.63;4.22;;;1.50;99.90;;;;;;5049831;28;20381;-85
2024/01/31 05:39:14;;;;;;;6.75;4.28;;;1.60;99.90;;;;;;5050207;28;20019;-86
2024/01/31 05:41:44;;;;;;;5.28;3.10;;;1.70;99.90;;;;;;5049917;28;20428;-85
2024/01/31 05:44:10;;;;;;;3.88;3.08;;;1.60;99.90;;;;;;5047954;28;20220;-86
2024/01/31 05:46:36;;;;;;;5.68;3.38;;;1.50;99.90;;;;;;5048887;28;20339;-86
2024/01/31 05:49:02;;;;;;;7.15;3.80;;;1.30;99.90;;;;;;5049417;28;20506;-84
2024/01/31 05:51:31;;;;;;;7.85;3.78;;;1.30;99.90;;;;;;5047631;28;20025;-86
2024/01/31 05:53:57;;;;;;;;;;;1.30;99.90;;;;;;5050411;28;20477;-86
2024/01/31 05:56:23;;;;;;;11.35;6.30;;;1.20;99.90;;;;;;5050304;28;19907;-85
2024/01/31 05:58:49;;;;;;;7.97;3.90;;;1.10;99.90;;;;;;5049856;28;20061;-85
2024/01/31 06:01:15;;;;;;;8.13;3.78;;;1.20;99.90;;;;;;5050454;28;20528;-84
2024/01/31 06:03:40;;;;;;;5.82;3.40;;;1.20;99.90;;;;;;5051131;28;20392;-83
2024/01/31 06:06:06;;;;;;;8.18;3.28;;;1.20;99.90;;;;;;5049677;28;20036;-81
2024/01/31 06:08:35;;;;;;;4.65;3.38;;;1.10;99.90;;;;;;5049550;28;20108;-83
2024/01/31 06:11:08;;;;;;;5.45;3.08;;;1.00;99.90;;;;;;5051024;28;20021;-77
2024/01/31 06:13:37;;;;;;;5.43;3.22;;;1.00;99.90;;;;;;5048930;28;20025;-77
2024/01/31 06:16:03;;;;;;;5.75;3.50;;;1.00;99.90;;;;;;5049154;28;20025;-77
2024/01/31 06:18:33;;;;;;;4.97;3.22;;;0.90;99.90;;;;;;5050417;28;20493;-78
2024/01/31 06:21:02;;;;;;;8.43;3.70;;;1.00;99.90;;;;;;5050364;28;20040;-81
2024/01/31 06:23:28;;;;;;;5.47;3.55;;;1.00;99.90;;;;;;5050556;28;20025;-77
2024/01/31 06:25:54;;;;;;;5.03;3.50;;;1.10;99.90;;;;;;5057010;28;20035;-74
2024/01/31 06:28:19;;;;;;;8.48;4.07;;;1.10;99.90;;;;;;5069276;28;20100;-75
2024/01/31 06:30:45;;;;;;;6.75;3.60;;;0.90;99.90;;;;;;5069854;28;20028;-75
2024/01/31 06:33:12;;;;;;;6.38;3.83;;;1.00;99.90;;;;;;5069607;28;20162;-75
2024/01/31 06:35:41;;;;;;;10.05;4.25;;;0.40;99.90;;;;;;5054865;28;20045;-75
2024/01/31 06:38:07;;;;;;;7.40;4.03;;;1.40;99.90;;;;;;5052175;28;20085;-75
2024/01/31 06:40:32;;;;;;;5.10;3.30;;;1.10;99.90;;;;;;5045047;28;20060;-75
2024/01/31 06:42:58;;;;;;;6.10;2.97;;;1.10;99.90;;;;;;5037492;28;20093;-76
2024/01/31 06:45:24;;;;;;;11.82;3.67;;;0.80;99.90;;;;;;5039539;28;20100;-76
2024/01/31 06:47:53;;;;;;;4.55;3.05;;;0.60;99.90;;;;;;5039300;28;20374;-75
2024/01/31 06:50:19;;;;;;;6.72;3.67;;;0.50;99.90;;;;;;5037982;28;20391;-76
2024/01/31 06:52:48;;;;;;;4.95;3.47;;;0.40;99.90;;;;;;5039743;28;20037;-76
2024/01/31 06:55:14;;;;;;;5.18;4.00;;;0.20;99.90;;;;;;5037650;28;20017;-76
2024/01/31 06:57:40;;;;;;;5.88;3.45;;;0.20;99.90;;;;;;5038923;28;20037;-78
2024/01/31 07:00:10;;;;;;;7.65;4.00;;;0.50;99.90;;;;;;5039758;28;20037;-75
2024/01/31 07:02:36;;;;;;;;;;;0.30;99.90;;;;;;5039967;28;20033;-75
2024/01/31 07:05:01;;;;;;;6.80;3.55;;;0.40;99.90;;;;;;5038542;28;19959;-74
2024/01/31 07:07:27;;;;;;;5.68;4.00;;;0.50;99.90;;;;;;5040354;28;20022;-74
2024/01/31 07:10:02;;;;;;;3.85;3.30;;;0.80;99.90;;;;;;5039165;28;20332;-74
2024/01/31 07:12:40;;;;;;;4.30;3.38;;;0.70;99.90;;;;;;5039543;28;20022;-77
2024/01/31 07:15:32;;;;;;;5.47;3.45;;;0.60;99.90;;;;;;5039629;28;20037;-76
2024/01/31 07:18:15;;;;;;;26.02;12.27;;;0.60;99.90;;;;;;5022492;28;20091;-76
2024/01/31 07:20:50;;;;;;;6.40;4.15;;;0.80;99.90;;;;;;5039948;28;20060;-76
2024/01/31 07:23:15;;;;;;;9.93;3.88;;;1.00;99.90;;;;;;5038235;28;20341;-77
2024/01/31 07:25:41;;;;;;;8.90;3.92;;;1.10;99.90;;;;;;5038192;28;20077;-76
2024/01/31 07:32:06;;;;;;;10.65;5.60;;;1.30;99.90;;;;;;5032025;28;20038;-76
2024/01/31 07:35:26;;;;;;;6.18;3.60;;;1.40;99.90;;;;;;4961093;28;20086;-76
2024/01/31 07:38:45;;;;;;;7.97;3.25;;;1.50;99.90;;;;;;4910463;29;20560;-76
2024/01/31 07:42:27;;;;;;;;;;;;;;;;;;;;;
2024/01/31 07:45:28;;;;;;;5.30;3.13;;;1.70;99.90;;;;;;4966681;28;20289;-75
2024/01/31 07:47:56;;;;;;;3.95;3.55;;;1.70;99.90;;;;;;4979138;28;20073;-77
2024/01/31 07:53:44;;;;;;;9.50;4.03;;;1.80;99.90;;;;;;5037581;28;20037;-76
2024/01/31 08:03:17;;;;;;;6.53;4.05;;;2.10;99.90;;;;;;5006226;28;20038;-79
2024/01/31 08:05:24;;;;;;;4.88;3.38;;;2.20;99.90;;;;;;4996807;28;20180;-76
2024/01/31 08:07:50;;;;;;;8.52;3.75;;;2.30;99.90;;;;;;5005573;28;20034;-77
2024/01/31 08:10:16;;;;;;;7.93;3.70;;;2.40;99.90;;;;;;5008998;28;20101;-77
2024/01/31 08:12:43;;;;;;;6.18;3.70;;;2.50;99.90;;;;;;5038872;28;20581;-76
2024/01/31 08:15:08;;;;;;;6.95;4.07;;;2.70;99.90;;;;;;5033695;28;20029;-77
2024/01/31 08:17:34;;;;;;;6.88;3.22;;;2.70;99.90;;;;;;5050416;28;20091;-77
2024/01/31 08:20:00;;;;;;;9.80;5.18;;;2.80;99.90;;;;;;5043560;28;20124;-77
2024/01/31 08:22:26;;;;;;;9.10;5.32;;;2.80;99.90;;;;;;5029430;28;20087;-75
2024/01/31 08:24:52;;;;;;;12.05;4.65;;;3.00;99.90;;;;;;5031194;28;20029;-76
2024/01/31 08:27:18;;;;;;;5.68;4.30;;;3.00;99.90;;;;;;5012634;28;20040;-75
2024/01/31 08:29:44;;;;;;;10.15;4.45;;;3.00;99.90;;;;;;5030935;28;20030;-77
2024/01/31 08:32:10;;;;;;;35.45;22.15;;;2.90;99.90;;;;;;5013130;28;20257;-76
2024/01/31 08:34:36;;;;;;;20.00;12.95;;;3.10;99.90;;;;;;5017373;28;20292;-77
2024/01/31 08:37:02;;;;;;;14.88;9.68;;;3.20;99.90;;;;;;5068653;28;20021;-76
2024/01/31 08:39:29;;;;;;;13.63;6.97;;;3.30;99.90;;;;;;5085327;28;20255;-76
2024/01/31 08:41:55;;;;;;;12.80;6.50;;;3.50;99.90;;;;;;5071059;28;20044;-76
2024/01/31 08:44:21;;;;;;;15.07;7.10;;;3.70;99.90;;;;;;5070495;28;20552;-74
2024/01/31 08:46:47;;;;;;;11.48;7.07;;;3.90;99.90;;;;;;5070433;28;20107;-75
2024/01/31 08:49:13;;;;;;;14.18;8.32;;;4.00;99.90;;;;;;5071374;28;20099;-74
2024/01/31 08:51:39;;;;;;;12.75;8.02;;;4.10;99.90;;;;;;5069591;28;20078;-75
2024/01/31 08:54:06;;;;;;;10.23;6.47;;;4.30;99.90;;;;;;5069704;28;20035;-75
2024/01/31 08:56:33;;;;;;;9.68;5.95;;;4.40;99.90;;;;;;5070933;28;20021;-75
2024/01/31 08:58:58;;;;;;;10.00;6.57;;;4.50;99.90;;;;;;5069045;28;20039;-76
2024/01/31 09:01:25;;;;;;;12.07;6.63;;;4.70;99.90;;;;;;5085819;28;20021;-75
2024/01/31 09:03:51;;;;;;;11.52;7.72;;;5.00;99.90;;;;;;5071136;28;20037;-76
2024/01/31 09:06:16;;;;;;;11.60;7.50;;;5.10;99.90;;;;;;5070761;28;20027;-76
2024/01/31 09:08:42;;;;;;;13.13;7.80;;;5.30;99.90;;;;;;5070501;28;20059;-75
2024/01/31 09:11:08;;;;;;;12.35;6.93;;;5.40;99.90;;;;;;5056573;28;20100;-75
2024/01/31 09:13:35;;;;;;;15.70;8.98;;;5.60;99.90;;;;;;5050220;28;20033;-74
2024/01/31 09:16:01;;;;;;;15.73;9.70;;;5.80;99.90;;;;;;5050719;28;20059;-76
2024/01/31 09:18:28;;;;;;;12.00;7.40;;;5.80;99.90;;;;;;5049703;28;20295;-75
2024/01/31 09:20:53;;;;;;;15.15;6.70;;;6.00;99.90;;;;;;5050284;28;20436;-75
2024/01/31 09:23:19;;;;;;;9.80;6.40;;;6.10;99.90;;;;;;5050684;28;20067;-76
2024/01/31 09:25:45;;;;;;;9.88;6.32;;;6.20;99.90;;;;;;5048952;28;20238;-76
2024/01/31 09:28:11;;;;;;;6.55;5.05;;;6.20;99.90;;;;;;5049655;28;20040;-76
2024/01/31 09:30:36;;;;;;;7.85;5.78;;;6.30;99.90;;;;;;5057777;28;20071;-77
2024/01/31 09:33:02;;;;;;;11.10;6.32;;;6.40;99.90;;;;;;5059824;28;20198;-76
2024/01/31 09:35:28;;;;;;;6.80;5.15;;;6.70;99.90;;;;;;5038810;28;20049;-77
2024/01/31 09:37:54;;;;;;;8.70;6.05;;;6.90;99.90;;;;;;5027009;28;20099;-76
2024/01/31 09:40:23;;;;;;;18.85;11.07;;;7.00;99.90;;;;;;5032907;28;20486;-76
2024/01/31 09:42:54;;;;;;;27.17;15.93;;;7.10;99.90;;;;;;5029156;28;20104;-76
2024/01/31 09:45:22;;;;;;;17.52;7.60;;;7.40;99.90;;;;;;5029681;28;20074;-76
2024/01/31 09:47:49;;;;;;;15.23;9.38;;;7.50;99.90;;;;;;5029997;28;20037;-77
2024/01/31 09:50:15;;;;;;;13.25;7.65;;;7.40;99.90;;;;;;5041767;28;20032;-77
2024/01/31 09:52:42;;;;;;;13.13;6.97;;;7.20;99.90;;;;;;5034365;28;20017;-76
2024/01/31 09:55:11;;;;;;;13.13;7.38;;;7.20;99.90;;;;;;5013807;28;20033;-77
2024/01/31 09:57:41;;;;;;;15.30;9.00;;;7.40;99.90;;;;;;5049398;28;20473;-76
2024/01/31 10:00:08;;;;;;;25.25;12.75;;;7.60;99.90;;;;;;5048051;28;20033;-75
2024/01/31 10:02:36;;;;;;;16.05;9.05;;;7.90;99.90;;;;;;5030997;28;20390;-76
2024/01/31 10:05:03;;;;;;;16.57;6.90;;;8.10;99.90;;;;;;5027933;28;20347;-77
2024/01/31 10:07:29;;;;;;;52.10;19.33;;;8.10;99.90;;;;;;5010038;28;20037;-77
2024/01/31 10:09:56;;;;;;;48.13;17.92;;;8.00;99.90;;;;;;5027833;28;20019;-76
2024/01/31 10:12:22;;;;;;;50.33;14.02;;;7.80;99.90;;;;;;5045360;28;20025;-77
2024/01/31 10:14:51;;;;;;;29.80;12.20;;;7.90;99.90;;;;;;5029807;28;20493;-76
2024/01/31 10:17:20;;;;;;;13.15;7.43;;;7.90;99.90;;;;;;5029281;28;20210;-76
2024/01/31 10:19:47;;;;;;;21.65;9.88;;;7.80;99.90;;;;;;5047888;28;20522;-76
2024/01/31 10:22:12;;;;;;;9.18;4.70;;;7.70;99.90;;;;;;5012548;28;20042;-76
2024/01/31 10:24:39;;;;;;;17.90;8.13;;;7.40;99.90;;;;;;5027538;28;20033;-76
2024/01/31 10:27:08;;;;;;;18.17;8.85;;;7.30;99.90;;;;;;5043459;28;20027;-76
2024/01/31 10:29:36;;;;;;;17.35;8.43;;;7.10;99.90;;;;;;5046864;28;20025;-75
2024/01/31 10:32:03;;;;;;;15.75;8.50;;;6.80;99.90;;;;;;5046053;28;20028;-77
2024/01/31 10:34:29;;;;;;;20.25;8.00;;;6.60;99.90;;;;;;5047470;28;20045;-76
2024/01/31 10:36:55;;;;;;;20.13;9.10;;;6.50;99.90;;;;;;5030845;28;20037;-77
2024/01/31 10:39:21;;;;;;;11.95;6.68;;;6.40;99.90;;;;;;5047626;28;20477;-77
2024/01/31 10:41:48;;;;;;;17.90;7.60;;;6.40;99.90;;;;;;5029314;28;20045;-75
2024/01/31 10:44:14;;;;;;;15.80;7.90;;;6.40;99.90;;;;;;5040269;28;20116;-76
2024/01/31 10:46:42;;;;;;;8.73;6.78;;;6.60;99.90;;;;;;5030555;28;20374;-74
2024/01/31 10:49:08;;;;;;;11.55;7.22;;;6.80;99.90;;;;;;5048738;28;20032;-77
2024/01/31 10:51:35;;;;;;;12.02;6.75;;;6.90;99.90;;;;;;5045964;28;20409;-77
2024/01/31 10:54:03;;;;;;;10.07;5.75;;;7.00;99.90;;;;;;5047599;28;20017;-77
2024/01/31 10:56:30;;;;;;;9.10;6.38;;;7.00;99.90;;;;;;5037683;28;20051;-77
2024/01/31 10:58:59;;;;;;;10.52;5.50;;;7.00;99.90;;;;;;5010885;28;20029;-78
2024/01/31 11:01:31;;;;;;;10.63;6.03;;;7.00;99.90;;;;;;5028973;28;20040;-76
2024/01/31 11:03:57;;;;;;;12.20;6.20;;;7.10;99.90;;;;;;5010751;28;20409;-76
2024/01/31 11:06:30;;;;;;;11.75;6.40;;;7.10;99.90;;;;;;5028734;28;20253;-76
2024/01/31 11:08:59;;;;;;;8.95;5.38;;;7.10;99.90;;;;;;5028133;28;20029;-75
2024/01/31 11:11:25;;;;;;;7.53;5.32;;;7.10;99.90;;;;;;5027964;28;20041;-77
2024/01/31 11:13:56;;;;;;;12.00;5.78;;;7.30;99.90;;;;;;5010024;28;20486;-75
2024/01/31 11:16:25;;;;;;;8.68;5.72;;;7.30;99.90;;;;;;5010060;28;20033;-76
2024/01/31 11:18:53;;;;;;;11.57;5.38;;;7.50;99.90;;;;;;5027883;28;20230;-75
2024/01/31 11:21:21;;;;;;;8.15;5.80;;;7.60;99.90;;;;;;5010789;28;20157;-76
2024/01/31 11:23:47;;;;;;;7.82;4.60;;;7.80;99.90;;;;;;5028456;28;20125;-75
2024/01/31 11:26:13;;;;;;;9.10;5.35;;;7.90;99.90;;;;;;5010522;28;20140;-75
2024/01/31 11:28:42;;;;;;;7.72;4.97;;;8.10;99.90;;;;;;5028443;28;20077;-76
2024/01/31 11:31:08;;;;;;;;;;;8.20;99.90;;;;;;5011518;28;20459;-76
2024/01/31 11:33:34;;;;;;;6.50;4.95;;;8.40;99.90;;;;;;5029194;28;19944;-75
2024/01/31 11:35:59;;;;;;;7.05;4.65;;;8.50;99.90;;;;;;5028512;28;20398;-77
2024/01/31 11:38:25;;;;;;;7.35;4.53;;;8.70;99.90;;;;;;5027309;28;20068;-75
2024/01/31 11:40:52;;;;;;;6.18;4.57;;;8.80;99.90;;;;;;5040422;28;20562;-75
2024/01/31 11:43:17;;;;;;;8.07;4.57;;;8.90;99.90;;;;;;5031872;28;20029;-75
2024/01/31 11:45:44;;;;;;;10.18;4.78;;;8.90;99.90;;;;;;5032084;28;20079;-75
2024/01/31 11:48:13;;;;;;;8.25;4.32;;;9.10;99.90;;;;;;5032149;28;20057;-76
2024/01/31 11:50:39;;;;;;;7.55;4.85;;;9.30;99.90;;;;;;5031935;28;20100;-76
2024/01/31 11:53:05;;;;;;;6.93;4.28;;;9.30;99.90;;;;;;5050666;28;20136;-76
2024/01/31 11:55:33;;;;;;;7.63;4.82;;;9.40;99.90;;;;;;5052035;28;20070;-77
2024/01/31 11:57:59;;;;;;;6.57;4.47;;;9.50;99.90;;;;;;5051473;28;20036;-76
2024/01/31 12:00:25;;;;;;;5.28;4.03;;;9.60;99.90;;;;;;5051925;28;20531;-77
2024/01/31 12:02:52;;;;;;;7.82;4.03;;;9.70;99.90;;;;;;5033506;28;20597;-77
2024/01/31 12:05:18;;;;;;;5.30;4.00;;;9.80;99.90;;;;;;5033788;28;20029;-77
2024/01/31 12:07:57;;;;;;;6.25;4.28;;;10.00;99.90;;;;;;5038148;28;20037;-76
2024/01/31 12:10:27;;;;;;;7.78;4.28;;;10.20;99.90;;;;;;5042155;28;21805;-76
2024/01/31 12:12:55;;;;;;;9.27;4.55;;;10.40;99.90;;;;;;5033127;28;20041;-78
2024/01/31 12:15:22;;;;;;;5.20;4.13;;;10.60;99.90;;;;;;5035497;28;20548;-77
2024/01/31 12:17:49;;;;;;;7.45;4.38;;;10.70;99.90;;;;;;5039130;28;20036;-77
2024/01/31 12:20:16;;;;;;;7.72;4.53;;;10.60;99.30;;;;;;5049980;28;20373;-77
2024/01/31 12:22:44;;;;;;;5.03;3.35;;;10.50;98.70;;;;;;5037947;28;20033;-76
2024/01/31 12:25:48;;;;;;;5.07;4.07;;;10.40;98.70;;;;;;5029596;28;20017;-77
2024/01/31 12:28:15;;;;;;;7.03;3.75;;;10.50;99.20;;;;;;5026992;28;20029;-75
2024/01/31 12:30:44;;;;;;;8.30;4.50;;;10.50;98.60;;;;;;5057397;28;20029;-77
2024/01/31 12:33:10;;;;;;;7.07;4.97;;;10.60;98.70;;;;;;5049619;28;20321;-76
2024/01/31 12:35:36;;;;;;;7.60;4.05;;;10.60;99.00;;;;;;5060310;28;20073;-77
2024/01/31 12:38:01;;;;;;;9.45;4.85;;;10.60;98.70;;;;;;5017844;28;20068;-76
2024/01/31 12:40:27;;;;;;;8.98;5.20;;;10.50;99.70;;;;;;5046722;28;20037;-76
2024/01/31 12:42:54;;;;;;;8.23;4.65;;;10.50;99.90;;;;;;5046212;28;20037;-75
2024/01/31 12:45:20;;;;;;;12.90;5.57;;;10.50;99.90;;;;;;5042478;28;20028;-75
2024/01/31 12:47:46;;;;;;;9.30;4.72;;;10.60;99.90;;;;;;5048403;28;20090;-77
2024/01/31 12:50:11;;;;;;;8.48;4.65;;;10.70;99.90;;;;;;5042164;28;20028;-76
2024/01/31 12:52:37;;;;;;;9.68;5.00;;;10.70;99.90;;;;;;5041319;28;20068;-77
2024/01/31 12:55:03;;;;;;;12.95;4.78;;;10.70;99.00;;;;;;5042433;28;20017;-75
2024/01/31 12:57:28;;;;;;;6.90;5.07;;;10.70;99.20;;;;;;5048455;28;20021;-75
2024/01/31 12:59:54;;;;;;;9.88;4.85;;;10.90;99.20;;;;;;5042251;28;20411;-76
2024/01/31 13:02:20;;;;;;;7.28;4.32;;;10.80;98.50;;;;;;5041855;28;20044;-76
2024/01/31 13:04:46;;;;;;;10.80;5.63;;;11.00;98.50;;;;;;5040986;28;20030;-76
2024/01/31 13:07:24;;;;;;;7.60;4.82;;;11.00;96.60;;;;;;5042165;28;20025;-77
2024/01/31 13:09:53;;;;;;;6.97;3.80;;;11.30;96.90;;;;;;5021673;28;20083;-76
2024/01/31 13:12:19;;;;;;;8.38;4.22;;;12.10;94.60;;;;;;5041618;28;20390;-76
2024/01/31 13:15:08;;;;;;;8.50;4.32;;;13.20;91.50;;;;;;5046957;28;20330;-77
2024/01/31 13:17:33;;;;;;;5.65;3.63;;;15.00;84.90;;;;;;5053654;28;20052;-76
2024/01/31 13:20:01;;;;;;;7.85;3.97;;;17.30;76.00;;;;;;5051717;28;20053;-77
2024/01/31 13:22:27;;;;;;;5.90;3.92;;;18.80;68.10;;;;;;5034391;28;20641;-76
2024/01/31 13:24:53;;;;;;;4.38;3.20;;;19.40;63.70;;;;;;5053389;28;20061;-77
2024/01/31 13:27:19;;;;;;;6.18;3.55;;;19.80;62.20;;;;;;5049417;28;20037;-77
2024/01/31 13:29:47;;;;;;;4.28;3.70;;;20.00;62.90;;;;;;5029321;28;20382;-75
2024/01/31 13:32:16;;;;;;;4.55;3.63;;;20.50;60.80;;;;;;5033209;28;20025;-76
2024/01/31 13:35:23;;;;;;;5.70;3.77;;;20.70;59.40;;;;;;5040971;28;20045;-77
2024/01/31 13:38:27;;;;;;;5.18;3.42;;;20.40;59.80;;;;;;4999146;28;20040;-77
2024/01/31 13:40:53;;;;;;;6.18;3.88;;;21.10;59.20;;;;;;4993037;28;20125;-77
2024/01/31 13:43:23;;;;;;;4.80;3.58;;;21.60;58.40;;;;;;5045674;28;20041;-77
2024/01/31 13:46:12;;;;;;;7.25;3.30;;;22.10;57.00;;;;;;5054990;28;20036;-78
2024/01/31 13:48:38;;;;;;;5.05;3.20;;;23.30;55.10;;;;;;5077367;28;20280;-78
2024/01/31 13:51:04;;;;;;;6.38;3.72;;;23.90;54.50;;;;;;5077887;28;20063;-78
2024/01/31 13:53:30;;;;;;;5.28;3.20;;;24.30;52.00;;;;;;5057370;28;20488;-76